Time;durP1;ratioP1;P1;durP2;ratioP2;P2;SDS_P1;SDS_P2;PMS_P1;PMS_P2;Temp;Humidity;BMP_temperature;BMP_pressure;BME280_temperature;BME280_humidity;BME280_pressure;Samples;Min_cycle;Max_cycle;Signal;HPM_P1;HPM_P2
2023/07/22 00:00:06;;;;;;;;;;;13.80;67.30;;;;;;4109876;28;19921;-85
2023/07/22 00:02:26;;;;;;;;;;;13.80;67.60;;;;;;4107616;28;19918;-85
2023/07/22 00:04:47;;;;;;;;;;;13.80;67.60;;;;;;4108059;28;19946;-85
2023/07/22 00:07:07;;;;;;;;;;;13.80;67.80;;;;;;4107426;28;19957;-85
2023/07/22 00:09:28;;;;;;;;;;;13.70;68.10;;;;;;4110363;28;19921;-85
2023/07/22 00:11:29;;;;;;;;;;;13.60;68.10;;;;;;4110805;28;19915;-85
2023/07/22 00:13:30;;;;;;;;;;;13.60;67.80;;;;;;4108370;28;19914;-87
2023/07/22 00:15:50;;;;;;;;;;;13.60;68.00;;;;;;4108691;28;19926;-85
2023/07/22 00:18:11;;;;;;;;;;;13.50;68.00;;;;;;4105903;28;20442;-85
2023/07/22 00:20:31;;;;;;;;;;;13.50;67.70;;;;;;4108227;28;19918;-85
2023/07/22 00:22:52;;;;;;;;;;;13.40;67.70;;;;;;4104868;28;19922;-85
2023/07/22 00:25:13;;;;;;;;;;;13.40;67.60;;;;;;4108128;28;19972;-86
2023/07/22 00:27:33;;;;;;;;;;;13.40;67.60;;;;;;4104555;28;19914;-86
2023/07/22 00:29:36;;;;;;;;;;;13.40;67.60;;;;;;4105320;28;19969;-85
2023/07/22 00:31:37;;;;;;;;;;;13.40;67.90;;;;;;4101125;28;19914;-85
2023/07/22 00:33:58;;;;;;;;;;;13.40;68.40;;;;;;4109019;28;19914;-85
2023/07/22 00:36:18;;;;;;;;;;;13.30;68.50;;;;;;4108392;28;19926;-85
2023/07/22 00:38:39;;;;;;;;;;;13.30;68.00;;;;;;4106830;28;19915;-85
2023/07/22 00:41:00;;;;;;;;;;;13.20;68.00;;;;;;4108980;28;19921;-85
2023/07/22 00:43:20;;;;;;;;;;;13.20;68.80;;;;;;4117206;28;19952;-86
2023/07/22 00:45:41;;;;;;;;;;;13.20;68.30;;;;;;4126951;28;20011;-87
2023/07/22 00:48:02;;;;;;;;;;;13.20;68.60;;;;;;4107944;28;19918;-85
2023/07/22 00:50:06;;;;;;;;;;;13.10;68.50;;;;;;4106066;28;19928;-85
2023/07/22 00:52:06;;;;;;;;;;;13.10;68.40;;;;;;4107653;28;20018;-85
2023/07/22 00:54:07;;;;;;;;;;;13.00;68.30;;;;;;4109617;28;20244;-85
2023/07/22 00:56:07;;;;;;;;;;;13.00;68.20;;;;;;4108825;28;20016;-84
2023/07/22 00:58:08;;;;;;;;;;;13.00;68.60;;;;;;4110260;28;19910;-86
2023/07/22 01:00:11;;;;;;;;;;;13.00;69.00;;;;;;4107663;28;19914;-85
2023/07/22 01:02:12;;;;;;;;;;;12.90;69.20;;;;;;4111486;28;19957;-85
2023/07/22 01:04:13;;;;;;;;;;;12.90;69.00;;;;;;4110366;28;19938;-84
2023/07/22 01:06:14;;;;;;;;;;;12.90;68.50;;;;;;4110351;28;19914;-85
2023/07/22 01:08:14;;;;;;;;;;;12.90;70.30;;;;;;4114627;28;20043;-85
2023/07/22 01:10:15;;;;;;;;;;;12.80;68.90;;;;;;4110685;28;20184;-84
2023/07/22 01:12:16;;;;;;;;;;;12.90;70.10;;;;;;4111727;28;19914;-85
2023/07/22 01:14:16;;;;;;;;;;;12.80;68.90;;;;;;4113565;28;19925;-84
2023/07/22 01:16:17;;;;;;;;;;;12.80;69.00;;;;;;4108724;28;19918;-85
2023/07/22 01:18:17;;;;;;;;;;;12.70;69.50;;;;;;4110667;28;19915;-85
2023/07/22 01:20:18;;;;;;;;;;;12.80;68.60;;;;;;4108307;28;19918;-85
2023/07/22 01:22:19;;;;;;;;;;;12.70;68.60;;;;;;4110725;28;19926;-85
2023/07/22 01:24:20;;;;;;;;;;;12.60;68.70;;;;;;4112039;28;19922;-85
2023/07/22 01:26:20;;;;;;;;;;;12.70;68.90;;;;;;4110037;28;19945;-85
2023/07/22 01:28:21;;;;;;;;;;;12.60;69.40;;;;;;4111614;28;19918;-85
2023/07/22 01:30:27;;;;;;;;;;;12.60;69.00;;;;;;4111096;28;19917;-85
2023/07/22 01:32:27;;;;;;;;;;;12.60;68.80;;;;;;4109145;28;19918;-85
2023/07/22 01:34:29;;;;;;;;;;;12.60;68.90;;;;;;4109075;28;19918;-85
2023/07/22 01:36:30;;;;;;;;;;;12.60;68.80;;;;;;4106737;28;19921;-85
2023/07/22 01:38:31;;;;;;;;;;;12.60;68.90;;;;;;4105213;28;19915;-85
2023/07/22 01:40:31;;;;;;;;;;;12.60;68.70;;;;;;4110441;28;20012;-85
2023/07/22 01:42:32;;;;;;;;;;;12.60;69.00;;;;;;4110401;28;19985;-84
2023/07/22 01:44:33;;;;;;;;;;;12.60;69.00;;;;;;4106697;28;19914;-84
2023/07/22 01:46:34;;;;;;;;;;;12.50;68.70;;;;;;4108159;28;19910;-84
2023/07/22 01:48:34;;;;;;;;;;;12.60;68.60;;;;;;4110572;28;19922;-84
2023/07/22 01:50:35;;;;;;;;;;;12.50;68.40;;;;;;4105195;28;19933;-84
2023/07/22 01:52:36;;;;;;;;;;;12.60;68.50;;;;;;4110673;28;20191;-85
2023/07/22 01:54:36;;;;;;;;;;;12.50;68.90;;;;;;4107913;28;19923;-85
2023/07/22 01:56:37;;;;;;;;;;;12.50;69.10;;;;;;4109599;28;19914;-84
2023/07/22 01:58:38;;;;;;;;;;;12.50;68.80;;;;;;4110862;28;19921;-86
2023/07/22 02:00:38;;;;;;;;;;;12.50;68.70;;;;;;4109189;28;19915;-84
2023/07/22 02:02:39;;;;;;;;;;;12.40;69.10;;;;;;4109042;28;19958;-84
2023/07/22 02:04:40;;;;;;;;;;;12.50;69.40;;;;;;4105693;28;19940;-86
2023/07/22 02:06:40;;;;;;;;;;;12.50;69.30;;;;;;4111101;28;19918;-84
2023/07/22 02:08:41;;;;;;;;;;;12.40;69.30;;;;;;4111461;28;19926;-85
2023/07/22 02:10:41;;;;;;;;;;;12.50;69.50;;;;;;4107333;28;19918;-85
2023/07/22 02:12:42;;;;;;;;;;;12.50;69.20;;;;;;4108852;28;19914;-84
2023/07/22 02:14:43;;;;;;;;;;;12.40;69.40;;;;;;4105324;28;19922;-86
2023/07/22 02:16:44;;;;;;;;;;;12.40;69.00;;;;;;4108320;28;20025;-85
2023/07/22 02:18:44;;;;;;;;;;;12.50;69.20;;;;;;4105138;28;19918;-84
2023/07/22 02:20:45;;;;;;;;;;;12.50;70.60;;;;;;4106488;28;20296;-84
2023/07/22 02:22:45;;;;;;;;;;;12.50;69.90;;;;;;4105743;28;19922;-85
2023/07/22 02:24:46;;;;;;;;;;;12.50;69.40;;;;;;4105995;28;19961;-85
2023/07/22 02:26:46;;;;;;;;;;;12.50;69.40;;;;;;4110902;28;19922;-84
2023/07/22 02:28:48;;;;;;;;;;;12.40;69.10;;;;;;4109883;28;19970;-84
2023/07/22 02:30:48;;;;;;;;;;;12.40;69.10;;;;;;4109166;28;19964;-84
2023/07/22 02:32:49;;;;;;;;;;;12.50;69.40;;;;;;4107815;28;19922;-84
2023/07/22 02:34:50;;;;;;;;;;;12.50;69.30;;;;;;4106127;28;19940;-85
2023/07/22 02:37:10;;;;;;;;;;;12.50;69.10;;;;;;4106007;28;19974;-84
2023/07/22 02:39:31;;;;;;;;;;;12.50;69.70;;;;;;4112738;28;20411;-85
2023/07/22 02:41:51;;;;;;;;;;;12.40;69.60;;;;;;4110389;28;20377;-85
2023/07/22 02:44:12;;;;;;;;;;;12.40;69.60;;;;;;4111838;28;19925;-84
2023/07/22 02:46:32;;;;;;;;;;;12.40;69.60;;;;;;4108714;28;19917;-84
2023/07/22 02:48:54;;;;;;;;;;;12.40;69.70;;;;;;4109650;28;20423;-85
2023/07/22 02:51:15;;;;;;;;;;;12.40;69.70;;;;;;4108611;28;19914;-84
2023/07/22 02:53:38;;;;;;;;;;;12.40;69.70;;;;;;4112622;28;20384;-85
2023/07/22 02:55:59;;;;;;;;;;;12.40;70.20;;;;;;4110180;28;20454;-84
2023/07/22 02:58:20;;;;;;;;;;;12.40;70.60;;;;;;4108644;28;20629;-84
2023/07/22 03:00:23;;;;;;;;;;;12.30;70.60;;;;;;4107494;28;19993;-84
2023/07/22 03:02:23;;;;;;;;;;;12.40;70.40;;;;;;4109762;28;19910;-84
2023/07/22 03:04:24;;;;;;;;;;;12.30;70.20;;;;;;4108320;28;19924;-84
2023/07/22 03:06:26;;;;;;;;;;;12.30;70.00;;;;;;4110150;28;19977;-84
2023/07/22 03:08:26;;;;;;;;;;;12.30;70.20;;;;;;4110431;28;19922;-84
2023/07/22 03:10:28;;;;;;;;;;;12.30;70.40;;;;;;4109626;28;19929;-84
2023/07/22 03:12:29;;;;;;;;;;;12.30;70.50;;;;;;4108194;28;19922;-85
2023/07/22 03:14:37;;;;;;;;;;;12.20;70.70;;;;;;4109297;28;19918;-83
2023/07/22 03:16:37;;;;;;;;;;;12.20;70.50;;;;;;4106942;28;19924;-84
2023/07/22 03:18:39;;;;;;;;;;;12.20;70.30;;;;;;4106870;28;20361;-85
2023/07/22 03:20:41;;;;;;;;;;;12.20;70.20;;;;;;4105711;28;19918;-84
2023/07/22 03:22:41;;;;;;;;;;;12.20;70.50;;;;;;4108001;28;19914;-85
2023/07/22 03:24:42;;;;;;;;;;;12.20;70.60;;;;;;4110974;28;19933;-84
2023/07/22 03:26:43;;;;;;;;;;;12.20;71.00;;;;;;4129611;28;19918;-85
2023/07/22 03:28:46;;;;;;;;;;;12.10;70.60;;;;;;4126376;28;19933;-85
2023/07/22 03:30:46;;;;;;;;;;;12.10;70.40;;;;;;4106741;28;19919;-84
2023/07/22 03:32:48;;;;;;;;;;;12.10;71.00;;;;;;4105387;28;19925;-84
2023/07/22 03:34:48;;;;;;;;;;;12.10;70.90;;;;;;4108061;28;19925;-85
2023/07/22 03:36:49;;;;;;;;;;;12.10;70.70;;;;;;4106724;28;20001;-84
2023/07/22 03:38:49;;;;;;;;;;;12.10;70.70;;;;;;4110063;28;19922;-84
2023/07/22 03:40:53;;;;;;;;;;;12.10;70.50;;;;;;4109201;28;19977;-86
2023/07/22 03:42:55;;;;;;;;;;;12.00;71.10;;;;;;4104052;28;19922;-85
2023/07/22 03:44:55;;;;;;;;;;;12.00;70.90;;;;;;4104937;28;20016;-85
2023/07/22 03:46:56;;;;;;;;;;;11.90;70.70;;;;;;4109321;28;19918;-85
2023/07/22 03:48:56;;;;;;;;;;;12.00;70.90;;;;;;4106387;28;19981;-84
2023/07/22 03:50:57;;;;;;;;;;;11.90;71.40;;;;;;4107190;28;20376;-84
2023/07/22 03:52:58;;;;;;;;;;;11.90;72.30;;;;;;4109068;28;19933;-84
2023/07/22 03:54:59;;;;;;;;;;;11.90;72.10;;;;;;4106595;28;20380;-84
2023/07/22 03:56:59;;;;;;;;;;;12.00;72.30;;;;;;4105045;28;19920;-85
2023/07/22 03:59:00;;;;;;;;;;;11.90;71.90;;;;;;4107585;28;19960;-85
2023/07/22 04:01:00;;;;;;;;;;;11.90;71.80;;;;;;4104354;28;19936;-84
2023/07/22 04:03:01;;;;;;;;;;;11.90;72.60;;;;;;4104530;28;19922;-85
2023/07/22 04:05:02;;;;;;;;;;;11.90;72.30;;;;;;4104529;28;19921;-84
2023/07/22 04:07:02;;;;;;;;;;;11.80;73.00;;;;;;4107264;28;19919;-85
2023/07/22 04:09:03;;;;;;;;;;;11.80;73.10;;;;;;4103777;28;20625;-84
2023/07/22 04:11:03;;;;;;;;;;;11.90;73.80;;;;;;4104111;28;19914;-85
2023/07/22 04:13:04;;;;;;;;;;;12.00;74.70;;;;;;4108347;28;19949;-84
2023/07/22 04:15:05;;;;;;;;;;;12.00;74.80;;;;;;4106543;28;19918;-85
2023/07/22 04:17:05;;;;;;;;;;;12.00;75.00;;;;;;4120931;28;19922;-84
2023/07/22 04:19:06;;;;;;;;;;;12.00;75.00;;;;;;4104799;28;19929;-83
2023/07/22 04:21:06;;;;;;;;;;;12.00;75.40;;;;;;4104215;28;20300;-84
2023/07/22 04:23:07;;;;;;;;;;;12.10;75.80;;;;;;4104344;28;19923;-84
2023/07/22 04:25:08;;;;;;;;;;;12.20;76.00;;;;;;4105041;28;19941;-85
2023/07/22 04:27:09;;;;;;;;;;;12.20;76.80;;;;;;4104236;28;20027;-85
2023/07/22 04:29:11;;;;;;;;;;;12.20;77.20;;;;;;4101583;28;19918;-84
2023/07/22 04:31:11;;;;;;;;;;;12.30;77.10;;;;;;4100980;28;19925;-83
2023/07/22 04:33:12;;;;;;;;;;;12.30;77.10;;;;;;4104998;28;19922;-84
2023/07/22 04:35:12;;;;;;;;;;;12.50;77.60;;;;;;4105233;28;19929;-85
2023/07/22 04:37:13;;;;;;;;;;;12.50;77.90;;;;;;4101649;28;19929;-84
2023/07/22 04:39:13;;;;;;;;;;;12.60;78.10;;;;;;4107174;28;20301;-85
2023/07/22 04:41:14;;;;;;;;;;;12.70;78.10;;;;;;4105122;28;19915;-85
2023/07/22 04:43:15;;;;;;;;;;;12.70;78.50;;;;;;4106824;28;20066;-85
2023/07/22 04:45:15;;;;;;;;;;;12.80;78.60;;;;;;4103706;28;19918;-85
2023/07/22 04:47:16;;;;;;;;;;;12.90;78.40;;;;;;4105801;28;19925;-85
2023/07/22 04:49:17;;;;;;;;;;;12.90;78.10;;;;;;4105682;28;19922;-85
2023/07/22 04:51:18;;;;;;;;;;;13.00;77.70;;;;;;4107669;28;19987;-85
2023/07/22 04:53:19;;;;;;;;;;;13.10;77.40;;;;;;4103220;28;20314;-86
2023/07/22 04:55:19;;;;;;;;;;;13.10;77.20;;;;;;4106619;28;19922;-85
2023/07/22 04:57:20;;;;;;;;;;;13.10;77.60;;;;;;4107523;28;20344;-86
2023/07/22 04:59:21;;;;;;;;;;;13.10;77.70;;;;;;4106450;28;19954;-85
2023/07/22 05:01:22;;;;;;;;;;;13.20;77.60;;;;;;4103640;28;19925;-85
2023/07/22 05:03:25;;;;;;;;;;;13.20;77.40;;;;;;4108474;28;19961;-85
2023/07/22 05:05:25;;;;;;;;;;;13.20;77.20;;;;;;4108019;28;19960;-85
2023/07/22 05:07:26;;;;;;;;;;;13.30;77.50;;;;;;4109496;28;19918;-85
2023/07/22 05:09:27;;;;;;;;;;;13.30;78.30;;;;;;4109381;28;20000;-85
2023/07/22 05:11:27;;;;;;;;;;;13.50;78.00;;;;;;4108785;28;19969;-85
2023/07/22 05:13:28;;;;;;;;;;;13.40;77.90;;;;;;4108373;28;20035;-85
2023/07/22 05:15:28;;;;;;;;;;;13.60;78.00;;;;;;4102100;28;21099;-85
2023/07/22 05:17:31;;;;;;;;;;;13.60;77.60;;;;;;4108736;28;19915;-86
2023/07/22 05:19:31;;;;;;;;;;;13.60;77.60;;;;;;4108065;28;19925;-85
2023/07/22 05:21:32;;;;;;;;;;;13.80;77.90;;;;;;4105906;28;19918;-86
2023/07/22 05:23:33;;;;;;;;;;;13.90;78.20;;;;;;4107257;28;19920;-85
2023/07/22 05:25:33;;;;;;;;;;;13.90;78.00;;;;;;4107302;28;19914;-85
2023/07/22 05:27:34;;;;;;;;;;;13.90;77.70;;;;;;4105714;28;19952;-86
2023/07/22 05:29:35;;;;;;;;;;;14.00;77.20;;;;;;4107111;28;19921;-86
2023/07/22 05:31:36;;;;;;;;;;;14.10;77.50;;;;;;4108821;28;19921;-86
2023/07/22 05:33:37;;;;;;;;;;;14.10;77.30;;;;;;4104713;28;19925;-86
2023/07/22 05:35:38;;;;;;;;;;;14.20;76.60;;;;;;4103131;28;20005;-85
2023/07/22 05:37:38;;;;;;;;;;;14.20;76.70;;;;;;4122783;28;19952;-86
2023/07/22 05:39:39;;;;;;;;;;;14.30;76.50;;;;;;4108788;28;19914;-85
2023/07/22 05:41:39;;;;;;;;;;;14.30;76.40;;;;;;4108016;28;19914;-85
2023/07/22 05:43:40;;;;;;;;;;;14.40;76.40;;;;;;4109106;28;19922;-85
2023/07/22 05:45:43;;;;;;;;;;;14.40;76.40;;;;;;4107719;28;20403;-86
2023/07/22 05:47:43;;;;;;;;;;;14.40;76.20;;;;;;4104825;28;19918;-86
2023/07/22 05:49:44;;;;;;;;;;;14.60;76.00;;;;;;4110702;28;20018;-86
2023/07/22 05:51:44;;;;;;;;;;;14.60;75.70;;;;;;4110594;28;20353;-86
2023/07/22 05:53:45;;;;;;;;;;;14.80;76.50;;;;;;4109633;28;19996;-85
2023/07/22 05:55:46;;;;;;;;;;;14.80;76.20;;;;;;4103726;28;20078;-85
2023/07/22 05:57:46;;;;;;;;;;;14.80;75.70;;;;;;4108185;28;19929;-85
2023/07/22 05:59:47;;;;;;;;;;;14.90;75.40;;;;;;4111369;28;20009;-86
2023/07/22 06:01:47;;;;;;;;;;;15.00;75.20;;;;;;4107364;28;19922;-85
2023/07/22 06:03:48;;;;;;;;;;;15.10;74.50;;;;;;4109211;28;19957;-86
2023/07/22 06:05:48;;;;;;;;;;;15.10;75.00;;;;;;4111367;28;19921;-85
2023/07/22 06:07:51;;;;;;;;;;;15.20;75.20;;;;;;4123738;28;19910;-86
2023/07/22 06:09:52;;;;;;;;;;;15.30;74.50;;;;;;4133734;28;19925;-86
2023/07/22 06:11:53;;;;;;;;;;;15.30;73.90;;;;;;4134622;28;19902;-85
2023/07/22 06:13:53;;;;;;;;;;;15.30;73.50;;;;;;4111623;28;19988;-85
2023/07/22 06:15:57;;;;;;;;;;;15.30;73.30;;;;;;4110475;28;20017;-86
2023/07/22 06:17:57;;;;;;;;;;;15.40;72.90;;;;;;4111134;28;19977;-85
2023/07/22 06:19:58;;;;;;;;;;;15.40;72.30;;;;;;4106637;28;19919;-85
2023/07/22 06:21:58;;;;;;;;;;;15.40;72.60;;;;;;4106369;28;19918;-85
2023/07/22 06:23:59;;;;;;;;;;;15.50;72.30;;;;;;4107035;28;19922;-85
2023/07/22 06:25:59;;;;;;;;;;;15.50;72.20;;;;;;4106889;28;19921;-85
2023/07/22 06:28:00;;;;;;;;;;;15.50;71.90;;;;;;4103979;28;20006;-85
2023/07/22 06:30:01;;;;;;;;;;;15.60;71.40;;;;;;4105810;28;19918;-84
2023/07/22 06:32:01;;;;;;;;;;;15.60;70.90;;;;;;4109766;28;19998;-85
2023/07/22 06:34:03;;;;;;;;;;;15.70;71.00;;;;;;4106015;28;19922;-87
2023/07/22 06:36:03;;;;;;;;;;;15.70;70.70;;;;;;4106558;28;20005;-86
2023/07/22 06:38:04;;;;;;;;;;;15.70;70.50;;;;;;4107925;28;19917;-85
2023/07/22 06:40:05;;;;;;;;;;;15.80;70.20;;;;;;4105492;28;19922;-85
2023/07/22 06:44:16;;;;;;;;;;;15.90;69.90;;;;;;4145600;23;19929;-86
2023/07/22 06:46:17;;;;;;;;;;;16.00;69.90;;;;;;4147452;28;19925;-84
2023/07/22 06:48:20;;;;;;;;;;;16.00;69.20;;;;;;4144069;28;20194;-85
2023/07/22 06:50:20;;;;;;;;;;;16.00;69.40;;;;;;4145600;28;19920;-85
2023/07/22 06:52:21;;;;;;;;;;;16.10;68.90;;;;;;4143240;28;20284;-86
2023/07/22 06:54:22;;;;;;;;;;;16.10;68.70;;;;;;4128876;28;20630;-86
2023/07/22 06:56:23;;;;;;;;;;;16.20;68.30;;;;;;4145519;28;19929;-86
2023/07/22 06:58:23;;;;;;;;;;;16.20;68.10;;;;;;4144703;28;19932;-86
2023/07/22 07:00:24;;;;;;;;;;;16.30;67.30;;;;;;4145908;28;19925;-85
2023/07/22 07:02:25;;;;;;;;;;;16.30;66.60;;;;;;4145405;28;19914;-86
2023/07/22 07:04:26;;;;;;;;;;;16.30;67.00;;;;;;4130037;28;19964;-85
2023/07/22 07:06:28;;;;;;;;;;;16.40;66.60;;;;;;4141115;28;19969;-86
2023/07/22 07:08:28;;;;;;;;;;;16.50;66.90;;;;;;4144130;28;19921;-85
2023/07/22 07:10:29;;;;;;;;;;;16.50;66.70;;;;;;4147812;28;20008;-86
2023/07/22 07:12:29;;;;;;;;;;;16.50;66.70;;;;;;4143625;28;19914;-88
2023/07/22 07:14:30;;;;;;;;;;;16.50;66.60;;;;;;4129207;28;19914;-85
2023/07/22 07:16:31;;;;;;;;;;;16.60;66.20;;;;;;4143707;28;20247;-86
2023/07/22 07:18:32;;;;;;;;;;;16.70;65.20;;;;;;4141688;28;20011;-86
2023/07/22 07:20:32;;;;;;;;;;;16.70;65.10;;;;;;4144664;28;19913;-86
2023/07/22 07:22:33;;;;;;;;;;;16.70;65.50;;;;;;4142998;28;19918;-87
2023/07/22 07:24:33;;;;;;;;;;;16.80;66.30;;;;;;4145190;28;19936;-86
2023/07/22 07:26:34;;;;;;;;;;;16.80;65.00;;;;;;4147049;28;20367;-86
2023/07/22 07:28:34;;;;;;;;;;;16.90;64.00;;;;;;4146959;28;20438;-86
2023/07/22 07:30:35;;;;;;;;;;;16.90;64.70;;;;;;4145229;28;20379;-86
2023/07/22 07:32:36;;;;;;;;;;;17.00;64.70;;;;;;4145928;28;19913;-86
2023/07/22 07:34:36;;;;;;;;;;;17.00;63.80;;;;;;4143672;28;19913;-85
2023/07/22 07:36:37;;;;;;;;;;;17.10;62.70;;;;;;4141676;28;19918;-87
2023/07/22 07:38:37;;;;;;;;;;;17.10;63.00;;;;;;4146546;28;19921;-86
2023/07/22 07:40:38;;;;;;;;;;;17.20;62.50;;;;;;4144602;28;19918;-86
2023/07/22 07:42:39;;;;;;;;;;;17.20;62.50;;;;;;4140328;28;19916;-86
2023/07/22 07:44:39;;;;;;;;;;;17.20;62.50;;;;;;4143132;28;20352;-88
2023/07/22 07:46:40;;;;;;;;;;;17.30;62.00;;;;;;4143881;28;19914;-87
2023/07/22 07:48:40;;;;;;;;;;;17.40;62.10;;;;;;4145171;28;20406;-87
2023/07/22 07:50:41;;;;;;;;;;;17.30;62.10;;;;;;4144998;28;20483;-87
2023/07/22 07:52:41;;;;;;;;;;;17.40;62.20;;;;;;4144699;28;19924;-87
2023/07/22 07:54:42;;;;;;;;;;;17.50;62.30;;;;;;4143003;28;19920;-87
2023/07/22 07:56:43;;;;;;;;;;;17.50;62.30;;;;;;4144721;28;19925;-86
2023/07/22 07:58:44;;;;;;;;;;;17.50;62.10;;;;;;4143258;28;20457;-87
2023/07/22 08:00:44;;;;;;;;;;;17.60;61.80;;;;;;4144770;28;19914;-86
2023/07/22 08:02:45;;;;;;;;;;;17.70;61.80;;;;;;4143284;28;20008;-86
2023/07/22 08:04:46;;;;;;;;;;;17.70;60.10;;;;;;4145441;28;19956;-86
2023/07/22 08:06:47;;;;;;;;;;;17.70;61.10;;;;;;4148019;28;19917;-87
2023/07/22 08:08:48;;;;;;;;;;;17.80;61.10;;;;;;4144167;28;19918;-86
2023/07/22 08:10:58;;;;;;;;;;;17.90;61.00;;;;;;4143677;28;19917;-86
2023/07/22 08:12:59;;;;;;;;;;;17.90;61.20;;;;;;4147081;28;19917;-86
2023/07/22 08:15:00;;;;;;;;;;;18.00;60.70;;;;;;4143948;28;20445;-86
2023/07/22 08:17:00;;;;;;;;;;;18.00;59.40;;;;;;4140145;28;20082;-86
2023/07/22 08:19:01;;;;;;;;;;;18.00;60.40;;;;;;4142222;28;20011;-86
2023/07/22 08:21:03;;;;;;;;;;;18.10;59.90;;;;;;4146701;28;20398;-86
2023/07/22 08:23:03;;;;;;;;;;;18.10;59.90;;;;;;4157966;28;19957;-86
2023/07/22 08:25:04;;;;;;;;;;;18.20;59.80;;;;;;4144129;28;20395;-87
2023/07/22 08:27:06;;;;;;;;;;;18.20;59.90;;;;;;4142521;28;20526;-86
2023/07/22 08:29:29;;;;;;;;;;;18.30;60.30;;;;;;4144080;28;19913;-87
2023/07/22 08:31:30;;;;;;;;;;;18.40;60.60;;;;;;4146137;28;19957;-87
2023/07/22 08:33:40;;;;;;;;;;;18.50;60.20;;;;;;4144645;28;19924;-87
2023/07/22 08:35:43;;;;;;;;;;;18.60;60.50;;;;;;4145467;28;19918;-86
2023/07/22 08:38:05;;;;;;;;;;;18.70;60.30;;;;;;4142306;28;19921;-88
2023/07/22 08:40:12;;;;;;;;;;;18.70;60.20;;;;;;4130071;28;19928;-86
2023/07/22 08:42:33;;;;;;;;;;;18.90;59.00;;;;;;4138833;28;19918;-88
2023/07/22 08:44:56;;;;;;;;;;;19.00;59.10;;;;;;4141119;28;20020;-87
2023/07/22 08:47:19;;;;;;;;;;;19.00;58.20;;;;;;4141099;28;19917;-88
2023/07/22 08:49:42;;;;;;;;;;;19.10;58.30;;;;;;4146127;28;19937;-87
2023/07/22 08:52:02;;;;;;;;;;;19.20;55.50;;;;;;4144475;28;19967;-85
2023/07/22 08:54:23;;;;;;;;;;;19.20;56.40;;;;;;4143341;28;20053;-85
2023/07/22 08:56:44;;;;;;;;;;;19.30;56.10;;;;;;4142576;28;19956;-86
2023/07/22 08:59:05;;;;;;;;;;;19.20;55.90;;;;;;4145251;28;19932;-85
2023/07/22 09:01:26;;;;;;;;;;;19.30;55.40;;;;;;4147376;28;19933;-86
2023/07/22 09:03:48;;;;;;;;;;;19.30;55.00;;;;;;4151154;28;19905;-86
2023/07/22 09:06:10;;;;;;;;;;;19.30;54.60;;;;;;4162965;28;19909;-87
2023/07/22 09:08:11;;;;;;;;;;;19.30;54.80;;;;;;4152613;28;19968;-86
2023/07/22 09:10:12;;;;;;;;;;;19.40;55.50;;;;;;4148583;28;19917;-85
2023/07/22 09:12:14;;;;;;;;;;;19.40;54.50;;;;;;4146939;28;19914;-87
2023/07/22 09:14:15;;;;;;;;;;;19.40;52.40;;;;;;4145580;28;19921;-86
2023/07/22 09:16:15;;;;;;;;;;;19.50;52.30;;;;;;4142650;28;19918;-84
2023/07/22 09:18:16;;;;;;;;;;;19.50;52.00;;;;;;4145062;28;20379;-85
2023/07/22 09:20:17;;;;;;;;;;;19.60;52.30;;;;;;4147131;28;20724;-85
2023/07/22 09:22:17;;;;;;;;;;;19.60;52.10;;;;;;4142672;28;19932;-85
2023/07/22 09:24:22;;;;;;;;;;;19.60;51.30;;;;;;4142469;28;19913;-86
2023/07/22 09:26:23;;;;;;;;;;;19.60;51.60;;;;;;4155274;28;20026;-86
2023/07/22 09:28:23;;;;;;;;;;;19.60;52.30;;;;;;4141840;28;19917;-87
2023/07/22 09:30:29;;;;;;;;;;;19.70;51.20;;;;;;4142989;28;19925;-87
2023/07/22 09:32:36;;;;;;;;;;;19.70;51.40;;;;;;4145841;28;19913;-85
2023/07/22 09:34:36;;;;;;;;;;;19.70;51.60;;;;;;4146724;28;19959;-85
2023/07/22 09:36:53;;;;;;;;;;;19.70;51.10;;;;;;4145064;28;20393;-87
2023/07/22 09:39:02;;;;;;;;;;;19.80;52.00;;;;;;4148806;28;20107;-88
2023/07/22 09:41:03;;;;;;;;;;;19.80;50.60;;;;;;4147446;28;19917;-85
2023/07/22 09:43:03;;;;;;;;;;;19.90;51.50;;;;;;4146336;28;19918;-84
2023/07/22 09:45:04;;;;;;;;;;;19.90;52.10;;;;;;4147240;28;20445;-86
2023/07/22 09:47:09;;;;;;;;;;;20.10;51.40;;;;;;4128810;28;20327;-85
2023/07/22 09:49:10;;;;;;;;;;;20.10;52.40;;;;;;4147077;28;19913;-86
2023/07/22 09:51:16;;;;;;;;;;;20.10;52.30;;;;;;4129372;28;19961;-86
2023/07/22 09:53:23;;;;;;;;;;;20.10;52.40;;;;;;4144624;28;19921;-85
2023/07/22 09:55:30;;;;;;;;;;;20.00;52.20;;;;;;4144568;28;19922;-88
2023/07/22 09:57:36;;;;;;;;;;;19.90;52.20;;;;;;4146693;28;19917;-86
2023/07/22 09:59:37;;;;;;;;;;;19.80;52.50;;;;;;4160553;28;19916;-86
2023/07/22 10:01:42;;;;;;;;;;;19.80;52.80;;;;;;4147933;28;20391;-86
2023/07/22 10:03:54;;;;;;;;;;;19.70;53.00;;;;;;4143084;28;19913;-86
2023/07/22 10:06:27;;;;;;;;;;;19.70;53.10;;;;;;4146406;28;20438;-88
2023/07/22 10:08:43;;;;;;;;;;;19.60;53.50;;;;;;4134316;28;20431;-86
2023/07/22 10:10:45;;;;;;;;;;;19.60;53.20;;;;;;4146984;28;19932;-88
2023/07/22 10:12:56;;;;;;;;;;;19.60;53.30;;;;;;4127765;28;19961;-85
2023/07/22 10:14:57;;;;;;;;;;;19.70;53.70;;;;;;4142491;28;19918;-86
2023/07/22 10:17:19;;;;;;;;;;;19.70;53.20;;;;;;4133250;28;19922;-85
2023/07/22 10:19:25;;;;;;;;;;;19.70;53.10;;;;;;4145803;28;19913;-86
2023/07/22 10:21:33;;;;;;;;;;;19.70;52.70;;;;;;4122780;28;20006;-86
2023/07/22 10:23:50;;;;;;;;;;;19.70;53.10;;;;;;4139970;28;19916;-87
2023/07/22 10:25:58;;;;;;;;;;;19.70;52.60;;;;;;4141498;28;20001;-86
2023/07/22 10:28:07;;;;;;;;;;;19.70;52.10;;;;;;4159715;28;20004;-87
2023/07/22 10:30:20;;;;;;;;;;;19.70;52.20;;;;;;4126529;28;19925;-86
2023/07/22 10:34:57;;;;;;;;;;;19.70;53.60;;;;;;4108141;28;20859;-86
2023/07/22 10:37:01;;;;;;;;;;;19.60;53.50;;;;;;4098220;28;20065;-87
2023/07/22 10:39:01;;;;;;;;;;;19.60;53.70;;;;;;4111930;28;19918;-86
2023/07/22 10:41:16;;;;;;;;;;;19.70;53.90;;;;;;4123410;28;20028;-86
2023/07/22 10:43:28;;;;;;;;;;;19.70;54.00;;;;;;4097381;28;20368;-86
2023/07/22 10:45:39;;;;;;;;;;;19.70;53.90;;;;;;4108651;28;19942;-86
2023/07/22 10:47:40;;;;;;;;;;;19.70;53.80;;;;;;4091348;28;20423;-87
2023/07/22 10:49:56;;;;;;;;;;;19.70;53.30;;;;;;4126219;28;19964;-84
2023/07/22 10:52:16;;;;;;;;;;;19.70;53.10;;;;;;4097404;28;20344;-87
2023/07/22 10:57:00;;;;;;;;;;;19.60;52.10;;;;;;4114589;28;20001;-88
2023/07/22 10:59:39;;;;;;;;;;;19.60;52.20;;;;;;4127804;28;19921;-86
2023/07/22 11:02:22;;;;;;;;;;;19.60;52.10;;;;;;4082019;29;19966;-86
2023/07/22 11:04:50;;;;;;;;;;;19.50;52.40;;;;;;4095560;28;19990;-86
2023/07/22 11:06:57;;;;;;;;;;;19.50;52.60;;;;;;4082630;29;20017;-87
2023/07/22 11:09:34;;;;;;;;;;;19.60;52.90;;;;;;4096028;28;19922;-86
2023/07/22 11:12:10;;;;;;;;;;;19.50;52.10;;;;;;4084167;29;19918;-86
2023/07/22 11:14:35;;;;;;;;;;;19.60;49.90;;;;;;4096163;29;20005;-86
2023/07/22 11:16:57;;;;;;;;;;;19.70;51.10;;;;;;4096452;29;19977;-87
2023/07/22 11:19:26;;;;;;;;;;;19.70;49.30;;;;;;4097070;29;19918;-87
2023/07/22 11:21:51;;;;;;;;;;;19.70;49.90;;;;;;4082876;28;19914;-88
2023/07/22 11:24:18;;;;;;;;;;;19.80;50.40;;;;;;4106726;28;19899;-87
2023/07/22 11:26:40;;;;;;;;;;;19.90;49.90;;;;;;4106788;28;19922;-89
2023/07/22 11:29:01;;;;;;;;;;;19.90;50.90;;;;;;4115437;28;19971;-87
2023/07/22 11:31:25;;;;;;;;;;;19.90;49.80;;;;;;4098551;28;19907;-88
2023/07/22 11:33:48;;;;;;;;;;;20.00;50.00;;;;;;4117075;28;19919;-89
2023/07/22 11:39:11;;;;;;;;;;;20.00;48.70;;;;;;4090480;28;19914;-86
2023/07/22 11:41:22;;;;;;;;;;;20.10;48.90;;;;;;4082636;29;20361;-86
2023/07/22 11:43:36;;;;;;;;;;;;;;;;;;;;;
2023/07/22 11:45:42;;;;;;;;;;;20.10;48.90;;;;;;4097827;28;19914;-85
2023/07/22 11:47:44;;;;;;;;;;;20.20;48.50;;;;;;4076825;29;19915;-87
2023/07/22 11:49:47;;;;;;;;;;;20.20;48.20;;;;;;4096803;28;20291;-85
2023/07/22 11:51:47;;;;;;;;;;;20.20;48.40;;;;;;4078119;29;19919;-89
2023/07/22 11:53:51;;;;;;;;;;;20.20;48.40;;;;;;4063559;29;19965;-85
2023/07/22 11:56:42;;;;;;;;;;;20.20;48.50;;;;;;4064769;29;19927;-84
2023/07/22 11:59:13;;;;;;;;;;;20.20;48.50;;;;;;4048294;29;19961;-86
2023/07/22 12:01:16;;;;;;;;;;;20.20;48.90;;;;;;4044504;29;20529;-86
2023/07/22 12:03:39;;;;;;;;;;;20.20;48.90;;;;;;4046841;29;19922;-85
2023/07/22 12:05:40;;;;;;;;;;;20.20;48.60;;;;;;4044899;29;19930;-88
2023/07/22 12:08:06;;;;;;;;;;;20.10;48.20;;;;;;4044766;29;19916;-87
2023/07/22 12:10:18;;;;;;;;;;;20.10;47.70;;;;;;4043649;29;19922;-87
2023/07/22 12:12:19;;;;;;;;;;;20.10;48.10;;;;;;4046669;29;19919;-87
2023/07/22 12:14:35;;;;;;;;;;;20.10;47.70;;;;;;4061199;29;20066;-87
2023/07/22 12:16:59;;;;;;;;;;;20.00;48.40;;;;;;4080256;29;19934;-85
2023/07/22 12:19:13;;;;;;;;;;;20.00;47.90;;;;;;4064489;29;19915;-87
2023/07/22 12:21:14;;;;;;;;;;;19.90;48.30;;;;;;4061235;29;19918;-87
2023/07/22 12:23:21;;;;;;;;;;;19.90;49.10;;;;;;4078400;29;19914;-86